<?xml version="1.0" encoding="UTF-8"?>
<gpx
  version="1.0"
  creator="GPSBabel - http://www.gpsbabel.org"
  xmlns:xsi="http://www.w3.org/2001/XMLSchema-instance"
  xmlns="http://www.topografix.com/GPX/1/0"
  xsi:schemaLocation="http://www.topografix.com/GPX/1/0 http://www.topografix.com/GPX/1/0/gpx.xsd">
<time>2019-02-26T19:32:49Z</time>
<bounds minlat="53.855634486" minlon="-1.865280755" maxlat="53.904148341" maxlon="-1.807089682"/>
<trk>
  <name>09 - Skirting Ilkley Moor</name>
<trkseg>
<trkpt lat="53.858677879" lon="-1.845207355">
  <ele>87.560632</ele>
  <time>2018-10-04T20:52:48.275Z</time>
  <name>WPT 001</name>
</trkpt>
<trkpt lat="53.858939100" lon="-1.845647312">
  <ele>88.067180</ele>
  <time>2018-10-04T20:52:50.064Z</time>
  <name>WPT 002</name>
</trkpt>
<trkpt lat="53.859642521" lon="-1.845380166">
  <ele>88.582092</ele>
  <time>2018-10-04T20:52:53.354Z</time>
  <name>WPT 003</name>
</trkpt>
<trkpt lat="53.858833016" lon="-1.844236759">
  <ele>89.166129</ele>
  <time>2018-10-04T20:52:57.949Z</time>
  <name>WPT 004</name>
</trkpt>
<trkpt lat="53.858467357" lon="-1.843664927">
  <ele>89.435150</ele>
  <time>2018-10-04T20:53:00.470Z</time>
  <name>WPT 005</name>
</trkpt>
<trkpt lat="53.858310506" lon="-1.843312780">
  <ele>89.518276</ele>
  <time>2018-10-04T20:53:02.197Z</time>
  <name>WPT 006</name>
</trkpt>
<trkpt lat="53.858596589" lon="-1.842826703">
  <ele>94.120457</ele>
  <time>2018-10-04T20:53:03.661Z</time>
  <name>WPT 007</name>
</trkpt>
<trkpt lat="53.859058582" lon="-1.842146864">
  <ele>99.627497</ele>
  <time>2018-10-04T20:53:08.851Z</time>
  <name>WPT 008</name>
</trkpt>
<trkpt lat="53.859263585" lon="-1.842203869">
  <ele>99.706553</ele>
  <time>2018-10-04T20:53:10.996Z</time>
  <name>WPT 009</name>
</trkpt>
<trkpt lat="53.859844666" lon="-1.842548345">
  <ele>99.841505</ele>
  <time>2018-10-04T20:53:12.437Z</time>
  <name>WPT 010</name>
</trkpt>
<trkpt lat="53.860185831" lon="-1.842258176">
  <ele>102.803358</ele>
  <time>2018-10-04T20:53:14.336Z</time>
  <name>WPT 011</name>
</trkpt>
<trkpt lat="53.860629915" lon="-1.842314284">
  <ele>104.831871</ele>
  <time>2018-10-04T20:53:20.972Z</time>
  <name>WPT 012</name>
</trkpt>
<trkpt lat="53.861244998" lon="-1.842543087">
  <ele>105.135871</ele>
  <time>2018-10-04T20:53:23.184Z</time>
  <name>WPT 013</name>
</trkpt>
<trkpt lat="53.861620924" lon="-1.842715014">
  <ele>105.222776</ele>
  <time>2018-10-04T20:53:24.392Z</time>
  <name>WPT 014</name>
</trkpt>
<trkpt lat="53.861860459" lon="-1.843060795">
  <ele>104.183350</ele>
  <time>2018-10-04T20:53:25.578Z</time>
  <name>WPT 015</name>
</trkpt>
<trkpt lat="53.862185568" lon="-1.843550711">
  <ele>102.668142</ele>
  <time>2018-10-04T20:53:27.265Z</time>
  <name>WPT 016</name>
</trkpt>
<trkpt lat="53.862356979" lon="-1.844041206">
  <ele>101.113490</ele>
  <time>2018-10-04T20:53:28.551Z</time>
  <name>WPT 017</name>
</trkpt>
<trkpt lat="53.862494197" lon="-1.844502941">
  <ele>99.773832</ele>
  <time>2018-10-04T20:53:30.457Z</time>
  <name>WPT 018</name>
</trkpt>
<trkpt lat="53.862682420" lon="-1.844791148">
  <ele>99.475157</ele>
  <time>2018-10-04T20:53:32.725Z</time>
  <name>WPT 019</name>
</trkpt>
<trkpt lat="53.862956029" lon="-1.845079043">
  <ele>99.621870</ele>
  <time>2018-10-04T20:53:34.194Z</time>
  <name>WPT 020</name>
</trkpt>
<trkpt lat="53.863297760" lon="-1.845222235">
  <ele>100.521541</ele>
  <time>2018-10-04T20:53:36.685Z</time>
  <name>WPT 021</name>
</trkpt>
<trkpt lat="53.863622264" lon="-1.845249928">
  <ele>101.761035</ele>
  <time>2018-10-04T20:53:38.781Z</time>
  <name>WPT 022</name>
</trkpt>
<trkpt lat="53.864032117" lon="-1.845248416">
  <ele>103.470193</ele>
  <time>2018-10-04T20:53:39.887Z</time>
  <name>WPT 023</name>
</trkpt>
<trkpt lat="53.864356696" lon="-1.845333893">
  <ele>104.199174</ele>
  <time>2018-10-04T20:53:41.145Z</time>
  <name>WPT 024</name>
</trkpt>
<trkpt lat="53.864562596" lon="-1.845390917">
  <ele>104.476544</ele>
  <time>2018-10-04T20:53:46.518Z</time>
  <name>WPT 025</name>
</trkpt>
<trkpt lat="53.865253813" lon="-1.846118278">
  <ele>103.552237</ele>
  <time>2018-10-04T20:53:48.692Z</time>
  <name>WPT 026</name>
</trkpt>
<trkpt lat="53.865599326" lon="-1.846408976">
  <ele>103.536806</ele>
  <time>2018-10-04T20:53:50.948Z</time>
  <name>WPT 027</name>
</trkpt>
<trkpt lat="53.866031031" lon="-1.846626372">
  <ele>104.418203</ele>
  <time>2018-10-04T20:53:53.011Z</time>
  <name>WPT 028</name>
</trkpt>
<trkpt lat="53.866398068" lon="-1.846880505">
  <ele>105.378203</ele>
  <time>2018-10-04T20:53:54.891Z</time>
  <name>WPT 029</name>
</trkpt>
<trkpt lat="53.866700901" lon="-1.847536340">
  <ele>104.994203</ele>
  <time>2018-10-04T20:53:55.917Z</time>
  <name>WPT 030</name>
</trkpt>
<trkpt lat="53.866831484" lon="-1.848448287">
  <ele>103.895895</ele>
  <time>2018-10-04T20:53:56.857Z</time>
  <name>WPT 031</name>
</trkpt>
<trkpt lat="53.866875683" lon="-1.849287556">
  <ele>102.983895</ele>
  <time>2018-10-04T20:53:58.576Z</time>
  <name>WPT 032</name>
</trkpt>
<trkpt lat="53.866790039" lon="-1.849798819">
  <ele>102.393816</ele>
  <time>2018-10-04T20:54:00.772Z</time>
  <name>WPT 033</name>
</trkpt>
<trkpt lat="53.867027869" lon="-1.850235931">
  <ele>103.606985</ele>
  <time>2018-10-04T20:54:10.450Z</time>
  <name>WPT 034</name>
</trkpt>
<trkpt lat="53.867998027" lon="-1.849794492">
  <ele>108.906627</ele>
  <time>2018-10-04T20:54:12.555Z</time>
  <name>WPT 035</name>
</trkpt>
<trkpt lat="53.868688214" lon="-1.849719022">
  <ele>112.270864</ele>
  <time>2018-10-04T20:54:16.264Z</time>
  <name>WPT 036</name>
</trkpt>
<trkpt lat="53.869249431" lon="-1.850009002">
  <ele>117.287275</ele>
  <time>2018-10-04T20:54:17.745Z</time>
  <name>WPT 037</name>
</trkpt>
<trkpt lat="53.869637713" lon="-1.850007613">
  <ele>120.663157</ele>
  <time>2018-10-04T20:54:18.942Z</time>
  <name>WPT 038</name>
</trkpt>
<trkpt lat="53.870090343" lon="-1.849713996">
  <ele>124.940590</ele>
  <time>2018-10-04T20:54:20.433Z</time>
  <name>WPT 039</name>
</trkpt>
<trkpt lat="53.870521767" lon="-1.849712449">
  <ele>130.103636</ele>
  <time>2018-10-04T20:54:23.853Z</time>
  <name>WPT 040</name>
</trkpt>
<trkpt lat="53.870996470" lon="-1.849820249">
  <ele>135.047636</ele>
  <time>2018-10-04T20:54:25.157Z</time>
  <name>WPT 041</name>
</trkpt>
<trkpt lat="53.871600190" lon="-1.849599080">
  <ele>137.909253</ele>
  <time>2018-10-04T20:54:26.514Z</time>
  <name>WPT 042</name>
</trkpt>
<trkpt lat="53.872398049" lon="-1.849377208">
  <ele>138.888021</ele>
  <time>2018-10-04T20:54:27.579Z</time>
  <name>WPT 043</name>
</trkpt>
<trkpt lat="53.872786147" lon="-1.849229805">
  <ele>138.306544</ele>
  <time>2018-10-04T20:56:53.432Z</time>
  <name>WPT 088</name>
</trkpt>
<trkpt lat="53.872980105" lon="-1.849083099">
  <ele>137.918220</ele>
  <time>2018-10-04T20:56:55.575Z</time>
  <name>WPT 089</name>
</trkpt>
<trkpt lat="53.873104506" lon="-1.848659832">
  <ele>136.788114</ele>
  <time>2018-10-04T20:57:18.913Z</time>
  <name>WPT 090</name>
</trkpt>
<trkpt lat="53.873531326" lon="-1.848571598">
  <ele>139.937552</ele>
  <time>2018-10-04T20:57:21.083Z</time>
  <name>WPT 091</name>
</trkpt>
<trkpt lat="53.874077978" lon="-1.848714114">
  <ele>145.283084</ele>
  <time>2018-10-04T20:57:22.866Z</time>
  <name>WPT 092</name>
</trkpt>
<trkpt lat="53.874351359" lon="-1.848828722">
  <ele>148.415838</ele>
  <time>2018-10-04T20:57:27.425Z</time>
  <name>WPT 093</name>
</trkpt>
<trkpt lat="53.874641562" lon="-1.848740979">
  <ele>151.605603</ele>
  <time>2018-10-04T20:57:44.635Z</time>
  <name>WPT 094</name>
</trkpt>
<trkpt lat="53.875034155" lon="-1.848595067">
  <ele>155.605900</ele>
  <time>2018-10-04T20:57:47.433Z</time>
  <name>WPT 095</name>
</trkpt>
<trkpt lat="53.875051451" lon="-1.848768399">
  <ele>156.079117</ele>
  <time>2018-10-04T20:57:48.957Z</time>
  <name>WPT 096</name>
</trkpt>
<trkpt lat="53.875119796" lon="-1.848797052">
  <ele>156.601406</ele>
  <time>2018-10-04T20:57:50.220Z</time>
  <name>WPT 097</name>
</trkpt>
<trkpt lat="53.875410145" lon="-1.848824903">
  <ele>158.658230</ele>
  <time>2018-10-04T20:57:52.049Z</time>
  <name>WPT 098</name>
</trkpt>
<trkpt lat="53.875854297" lon="-1.848938900">
  <ele>162.284911</ele>
  <time>2018-10-04T20:57:53.256Z</time>
  <name>WPT 099</name>
</trkpt>
<trkpt lat="53.876332749" lon="-1.849168375">
  <ele>166.180649</ele>
  <time>2018-10-04T20:57:54.996Z</time>
  <name>WPT 100</name>
</trkpt>
<trkpt lat="53.876691443" lon="-1.849224884">
  <ele>168.456556</ele>
  <time>2018-10-04T20:57:58.775Z</time>
  <name>WPT 101</name>
</trkpt>
<trkpt lat="53.877903013" lon="-1.848498001">
  <ele>170.171915</ele>
  <time>2018-10-04T20:58:00.696Z</time>
  <name>WPT 102</name>
</trkpt>
<trkpt lat="53.878176321" lon="-1.848554816">
  <ele>172.345350</ele>
  <time>2018-10-04T20:58:02.007Z</time>
  <name>WPT 103</name>
</trkpt>
<trkpt lat="53.878432624" lon="-1.848669495">
  <ele>174.638754</ele>
  <time>2018-10-04T20:58:04.876Z</time>
  <name>WPT 104</name>
</trkpt>
<trkpt lat="53.878791936" lon="-1.849217328">
  <ele>179.167123</ele>
  <time>2018-10-04T20:58:06.440Z</time>
  <name>WPT 105</name>
</trkpt>
<trkpt lat="53.878860535" lon="-1.849448294">
  <ele>180.344972</ele>
  <time>2018-10-04T20:58:11.636Z</time>
  <name>WPT 106</name>
</trkpt>
<trkpt lat="53.880278194" lon="-1.849645520">
  <ele>190.485372</ele>
  <time>2018-10-04T20:58:15.933Z</time>
  <name>WPT 107</name>
</trkpt>
<trkpt lat="53.880685715" lon="-1.847794272">
  <ele>190.343979</ele>
  <time>2018-10-04T20:58:18.947Z</time>
  <name>WPT 108</name>
</trkpt>
<trkpt lat="53.881043785" lon="-1.847359425">
  <ele>192.718357</ele>
  <time>2018-10-04T20:58:20.679Z</time>
  <name>WPT 109</name>
</trkpt>
<trkpt lat="53.881265384" lon="-1.847040681">
  <ele>193.476125</ele>
  <time>2018-10-04T20:58:24.442Z</time>
  <name>WPT 110</name>
</trkpt>
<trkpt lat="53.881470199" lon="-1.846953223">
  <ele>195.699069</ele>
  <time>2018-10-04T20:58:27.656Z</time>
  <name>WPT 111</name>
</trkpt>
<trkpt lat="53.881606817" lon="-1.846952724">
  <ele>197.560239</ele>
  <time>2018-10-04T20:58:28.614Z</time>
  <name>WPT 112</name>
</trkpt>
<trkpt lat="53.881914242" lon="-1.846980505">
  <ele>201.939110</ele>
  <time>2018-10-04T20:58:29.550Z</time>
  <name>WPT 113</name>
</trkpt>
<trkpt lat="53.882255602" lon="-1.846834739">
  <ele>205.593291</ele>
  <time>2018-10-04T20:58:30.425Z</time>
  <name>WPT 114</name>
</trkpt>
<trkpt lat="53.882716316" lon="-1.846544012">
  <ele>210.108928</ele>
  <time>2018-10-04T20:58:32.618Z</time>
  <name>WPT 115</name>
</trkpt>
<trkpt lat="53.883057600" lon="-1.846340431">
  <ele>213.657233</ele>
  <time>2018-10-04T20:58:33.628Z</time>
  <name>WPT 116</name>
</trkpt>
<trkpt lat="53.883399329" lon="-1.846483701">
  <ele>217.801794</ele>
  <time>2018-10-04T20:58:34.643Z</time>
  <name>WPT 117</name>
</trkpt>
<trkpt lat="53.883827032" lon="-1.847089141">
  <ele>225.213400</ele>
  <time>2018-10-04T20:58:39.049Z</time>
  <name>WPT 118</name>
</trkpt>
<trkpt lat="53.884083815" lon="-1.847579593">
  <ele>229.495615</ele>
  <time>2018-10-04T20:58:40.187Z</time>
  <name>WPT 119</name>
</trkpt>
<trkpt lat="53.884391607" lon="-1.847896433">
  <ele>231.325294</ele>
  <time>2018-10-04T20:58:41.164Z</time>
  <name>WPT 120</name>
</trkpt>
<trkpt lat="53.884767707" lon="-1.848213031">
  <ele>233.369389</ele>
  <time>2018-10-04T20:58:42.423Z</time>
  <name>WPT 121</name>
</trkpt>
<trkpt lat="53.885226806" lon="-1.846650442">
  <ele>227.215982</ele>
  <time>2018-10-04T20:58:44.179Z</time>
  <name>WPT 122</name>
</trkpt>
<trkpt lat="53.885774306" lon="-1.847457818">
  <ele>231.439225</ele>
  <time>2018-10-04T20:58:45.694Z</time>
  <name>WPT 123</name>
</trkpt>
<trkpt lat="53.886234875" lon="-1.847051447">
  <ele>236.747252</ele>
  <time>2018-10-04T20:58:46.898Z</time>
  <name>WPT 124</name>
</trkpt>
<trkpt lat="53.887054983" lon="-1.847366433">
  <ele>242.138062</ele>
  <time>2018-10-04T20:58:48.481Z</time>
  <name>WPT 125</name>
</trkpt>
<trkpt lat="53.887345184" lon="-1.847278654">
  <ele>244.152062</ele>
  <time>2018-10-04T20:58:49.507Z</time>
  <name>WPT 126</name>
</trkpt>
<trkpt lat="53.887635349" lon="-1.847161965">
  <ele>246.443262</ele>
  <time>2018-10-04T20:58:50.438Z</time>
  <name>WPT 127</name>
</trkpt>
<trkpt lat="53.888027976" lon="-1.847044901">
  <ele>250.228587</ele>
  <time>2018-10-04T20:58:51.336Z</time>
  <name>WPT 128</name>
</trkpt>
<trkpt lat="53.888352552" lon="-1.847130441">
  <ele>252.672762</ele>
  <time>2018-10-04T20:58:54.688Z</time>
  <name>WPT 129</name>
</trkpt>
<trkpt lat="53.888523360" lon="-1.847158726">
  <ele>254.051394</ele>
  <time>2018-10-04T20:58:56.122Z</time>
  <name>WPT 130</name>
</trkpt>
<trkpt lat="53.888779628" lon="-1.847244516">
  <ele>256.073861</ele>
  <time>2018-10-04T20:58:57.230Z</time>
  <name>WPT 131</name>
</trkpt>
<trkpt lat="53.888830933" lon="-1.847302146">
  <ele>256.414246</ele>
  <time>2018-10-04T20:58:58.206Z</time>
  <name>WPT 132</name>
</trkpt>
<trkpt lat="53.888728801" lon="-1.847562695">
  <ele>254.958095</ele>
  <time>2018-10-04T20:58:59.145Z</time>
  <name>WPT 133</name>
</trkpt>
<trkpt lat="53.888558396" lon="-1.847852398">
  <ele>252.737418</ele>
  <time>2018-10-04T20:58:59.898Z</time>
  <name>WPT 134</name>
</trkpt>
<trkpt lat="53.888251264" lon="-1.848055870">
  <ele>250.037972</ele>
  <time>2018-10-04T20:59:00.806Z</time>
  <name>WPT 135</name>
</trkpt>
<trkpt lat="53.887551867" lon="-1.848665467">
  <ele>246.675907</ele>
  <time>2018-10-04T20:59:02.594Z</time>
  <name>WPT 136</name>
</trkpt>
<trkpt lat="53.887740661" lon="-1.849416387">
  <ele>250.892746</ele>
  <time>2018-10-04T20:59:03.824Z</time>
  <name>WPT 137</name>
</trkpt>
<trkpt lat="53.888083721" lon="-1.850629290">
  <ele>256.482440</ele>
  <time>2018-10-04T20:59:04.927Z</time>
  <name>WPT 138</name>
</trkpt>
<trkpt lat="53.888461065" lon="-1.851957724">
  <ele>258.266348</ele>
  <time>2018-10-04T20:59:05.916Z</time>
  <name>WPT 139</name>
</trkpt>
<trkpt lat="53.888581459" lon="-1.852651099">
  <ele>259.478335</ele>
  <time>2018-10-04T20:59:29.805Z</time>
  <name>WPT 140</name>
</trkpt>
<trkpt lat="53.888616144" lon="-1.853084602">
  <ele>260.196555</ele>
  <time>2018-10-04T20:59:31.021Z</time>
  <name>WPT 141</name>
</trkpt>
<trkpt lat="53.888531746" lon="-1.853894331">
  <ele>261.858112</ele>
  <time>2018-10-04T20:59:32.018Z</time>
  <name>WPT 142</name>
</trkpt>
<trkpt lat="53.888531922" lon="-1.854038872">
  <ele>262.046146</ele>
  <time>2018-10-04T20:59:32.248Z</time>
  <name>WPT 143</name>
</trkpt>
<trkpt lat="53.888583329" lon="-1.854183234">
  <ele>262.036322</ele>
  <time>2018-10-04T20:59:32.496Z</time>
  <name>WPT 144</name>
</trkpt>
<trkpt lat="53.888600582" lon="-1.854327716">
  <ele>262.140030</ele>
  <time>2018-10-04T20:59:32.645Z</time>
  <name>WPT 145</name>
</trkpt>
<trkpt lat="53.888617659" lon="-1.854327657">
  <ele>262.072434</ele>
  <time>2018-10-04T20:59:32.907Z</time>
  <name>WPT 146</name>
</trkpt>
<trkpt lat="53.889096485" lon="-1.854875257">
  <ele>260.419159</ele>
  <time>2018-10-04T20:59:34.007Z</time>
  <name>WPT 147</name>
</trkpt>
<trkpt lat="53.889694604" lon="-1.855220094">
  <ele>260.843223</ele>
  <time>2018-10-04T20:59:35.082Z</time>
  <name>WPT 148</name>
</trkpt>
<trkpt lat="53.890104664" lon="-1.855392134">
  <ele>263.004307</ele>
  <time>2018-10-04T20:59:36.357Z</time>
  <name>WPT 149</name>
</trkpt>
<trkpt lat="53.890412783" lon="-1.855998172">
  <ele>263.695124</ele>
  <time>2018-10-04T20:59:37.842Z</time>
  <name>WPT 150</name>
</trkpt>
<trkpt lat="53.890686744" lon="-1.856604336">
  <ele>263.259122</ele>
  <time>2018-10-04T20:59:38.956Z</time>
  <name>WPT 151</name>
</trkpt>
<trkpt lat="53.890738355" lon="-1.856922167">
  <ele>262.536673</ele>
  <time>2018-10-04T20:59:40.034Z</time>
  <name>WPT 152</name>
</trkpt>
<trkpt lat="53.890670356" lon="-1.857182587">
  <ele>263.562047</ele>
  <time>2018-10-04T20:59:41.095Z</time>
  <name>WPT 153</name>
</trkpt>
<trkpt lat="53.890465499" lon="-1.857241105">
  <ele>263.696619</ele>
  <time>2018-10-04T20:59:42.040Z</time>
  <name>WPT 154</name>
</trkpt>
<trkpt lat="53.890243805" lon="-1.857502046">
  <ele>265.040116</ele>
  <time>2018-10-04T20:59:43.279Z</time>
  <name>WPT 155</name>
</trkpt>
<trkpt lat="53.890073684" lon="-1.858051903">
  <ele>267.858810</ele>
  <time>2018-10-04T20:59:44.541Z</time>
  <name>WPT 156</name>
</trkpt>
<trkpt lat="53.889614606" lon="-1.859759092">
  <ele>269.644075</ele>
  <time>2018-10-04T20:59:49.348Z</time>
  <name>WPT 157</name>
</trkpt>
<trkpt lat="53.889240320" lon="-1.860974514">
  <ele>269.705416</ele>
  <time>2018-10-04T20:59:50.750Z</time>
  <name>WPT 158</name>
</trkpt>
<trkpt lat="53.888916756" lon="-1.861756119">
  <ele>268.824445</ele>
  <time>2018-10-04T20:59:52.007Z</time>
  <name>WPT 159</name>
</trkpt>
<trkpt lat="53.888593318" lon="-1.862653345">
  <ele>266.790503</ele>
  <time>2018-10-04T20:59:53.359Z</time>
  <name>WPT 160</name>
</trkpt>
<trkpt lat="53.889020940" lon="-1.863259025">
  <ele>270.061762</ele>
  <time>2018-10-04T20:59:54.582Z</time>
  <name>WPT 161</name>
</trkpt>
<trkpt lat="53.889209380" lon="-1.863778768">
  <ele>272.939557</ele>
  <time>2018-10-04T20:59:55.647Z</time>
  <name>WPT 162</name>
</trkpt>
<trkpt lat="53.889603851" lon="-1.865280755">
  <ele>277.982864</ele>
  <time>2018-10-04T20:59:57.414Z</time>
  <name>WPT 163</name>
</trkpt>
<trkpt lat="53.890525433" lon="-1.864757418">
  <ele>281.730121</ele>
  <time>2018-10-04T20:59:59.075Z</time>
  <name>WPT 164</name>
</trkpt>
<trkpt lat="53.891259163" lon="-1.864234666">
  <ele>282.578954</ele>
  <time>2018-10-04T21:00:07.532Z</time>
  <name>WPT 165</name>
</trkpt>
<trkpt lat="53.891805534" lon="-1.864146163">
  <ele>282.302615</ele>
  <time>2018-10-04T21:00:08.712Z</time>
  <name>WPT 166</name>
</trkpt>
<trkpt lat="53.892197817" lon="-1.863711228">
  <ele>281.254141</ele>
  <time>2018-10-04T21:00:09.966Z</time>
  <name>WPT 167</name>
</trkpt>
<trkpt lat="53.893955511" lon="-1.862606852">
  <ele>282.738548</ele>
  <time>2018-10-04T21:00:21.149Z</time>
  <name>WPT 168</name>
</trkpt>
<trkpt lat="53.897539343" lon="-1.860542165">
  <ele>301.008211</ele>
  <time>2018-10-04T21:00:23.883Z</time>
  <name>WPT 169</name>
</trkpt>
<trkpt lat="53.900474616" lon="-1.858826314">
  <ele>324.126034</ele>
  <time>2018-10-04T21:00:27.341Z</time>
  <name>WPT 170</name>
</trkpt>
<trkpt lat="53.901532648" lon="-1.858186567">
  <ele>336.270991</ele>
  <time>2018-10-04T21:00:29.459Z</time>
  <name>WPT 171</name>
</trkpt>
<trkpt lat="53.901839214" lon="-1.857491509">
  <ele>340.242528</ele>
  <time>2018-10-04T21:00:30.575Z</time>
  <name>WPT 172</name>
</trkpt>
<trkpt lat="53.902384061" lon="-1.856130515">
  <ele>353.188182</ele>
  <time>2018-10-04T21:00:32.186Z</time>
  <name>WPT 173</name>
</trkpt>
<trkpt lat="53.902554034" lon="-1.855464817">
  <ele>358.915517</ele>
  <time>2018-10-04T21:00:37.920Z</time>
  <name>WPT 174</name>
</trkpt>
<trkpt lat="53.903537803" lon="-1.849995794">
  <ele>372.299092</ele>
  <time>2018-10-04T21:00:40.998Z</time>
  <name>WPT 175</name>
</trkpt>
<trkpt lat="53.904080549" lon="-1.847044107">
  <ele>378.083635</ele>
  <time>2018-10-04T21:00:43.182Z</time>
  <name>WPT 176</name>
</trkpt>
<trkpt lat="53.904114556" lon="-1.846928306">
  <ele>378.587369</ele>
  <time>2018-10-04T21:00:44.832Z</time>
  <name>WPT 177</name>
</trkpt>
<trkpt lat="53.904148341" lon="-1.846638992">
  <ele>379.611947</ele>
  <time>2018-10-04T21:00:46.028Z</time>
  <name>WPT 178</name>
</trkpt>
<trkpt lat="53.904130783" lon="-1.846263108">
  <ele>380.739084</ele>
  <time>2018-10-04T21:00:47.017Z</time>
  <name>WPT 179</name>
</trkpt>
<trkpt lat="53.904027616" lon="-1.845714026">
  <ele>382.556450</ele>
  <time>2018-10-04T21:00:55.926Z</time>
  <name>WPT 180</name>
</trkpt>
<trkpt lat="53.903942007" lon="-1.845540828">
  <ele>383.060622</ele>
  <time>2018-10-04T21:00:57.034Z</time>
  <name>WPT 181</name>
</trkpt>
<trkpt lat="53.903873177" lon="-1.845136217">
  <ele>384.506961</ele>
  <time>2018-10-04T21:01:14.111Z</time>
  <name>WPT 182</name>
</trkpt>
<trkpt lat="53.903769818" lon="-1.844442547">
  <ele>386.369184</ele>
  <time>2018-10-04T21:01:15.132Z</time>
  <name>WPT 183</name>
</trkpt>
<trkpt lat="53.903666153" lon="-1.843517532">
  <ele>387.155895</ele>
  <time>2018-10-04T21:01:16.128Z</time>
  <name>WPT 184</name>
</trkpt>
<trkpt lat="53.903526957" lon="-1.841551583">
  <ele>386.248096</ele>
  <time>2018-10-04T21:01:17.492Z</time>
  <name>WPT 185</name>
</trkpt>
<trkpt lat="53.903388770" lon="-1.840366445">
  <ele>386.123512</ele>
  <time>2018-10-04T21:01:19.211Z</time>
  <name>WPT 186</name>
</trkpt>
<trkpt lat="53.903301880" lon="-1.839238954">
  <ele>387.496446</ele>
  <time>2018-10-04T21:01:20.210Z</time>
  <name>WPT 187</name>
</trkpt>
<trkpt lat="53.903215329" lon="-1.838371733">
  <ele>388.811234</ele>
  <time>2018-10-04T21:01:21.337Z</time>
  <name>WPT 188</name>
</trkpt>
<trkpt lat="53.903076483" lon="-1.836723923">
  <ele>391.450278</ele>
  <time>2018-10-04T21:01:22.693Z</time>
  <name>WPT 189</name>
</trkpt>
<trkpt lat="53.902921606" lon="-1.835856980">
  <ele>393.387622</ele>
  <time>2018-10-04T21:01:50.224Z</time>
  <name>WPT 190</name>
</trkpt>
<trkpt lat="53.902732410" lon="-1.834874505">
  <ele>394.088815</ele>
  <time>2018-10-04T21:01:51.480Z</time>
  <name>WPT 191</name>
</trkpt>
<trkpt lat="53.902766206" lon="-1.834614109">
  <ele>394.660675</ele>
  <time>2018-10-04T21:01:52.973Z</time>
  <name>WPT 192</name>
</trkpt>
<trkpt lat="53.902831911" lon="-1.832734167">
  <ele>396.783778</ele>
  <time>2018-10-04T21:01:54.210Z</time>
  <name>WPT 193</name>
</trkpt>
<trkpt lat="53.902880956" lon="-1.831172387">
  <ele>397.980948</ele>
  <time>2018-10-04T21:01:55.187Z</time>
  <name>WPT 194</name>
</trkpt>
<trkpt lat="53.903049932" lon="-1.829899299">
  <ele>399.196948</ele>
  <time>2018-10-04T21:01:56.333Z</time>
  <name>WPT 195</name>
</trkpt>
<trkpt lat="53.902980061" lon="-1.828800688">
  <ele>399.766948</ele>
  <time>2018-10-04T21:01:57.252Z</time>
  <name>WPT 196</name>
</trkpt>
<trkpt lat="53.903030177" lon="-1.828019688">
  <ele>400.393948</ele>
  <time>2018-10-04T21:01:59.269Z</time>
  <name>WPT 197</name>
</trkpt>
<trkpt lat="53.902994235" lon="-1.826776349">
  <ele>400.344794</ele>
  <time>2018-10-04T21:02:00.484Z</time>
  <name>WPT 198</name>
</trkpt>
<trkpt lat="53.903095401" lon="-1.825879461">
  <ele>399.705898</ele>
  <time>2018-10-04T21:02:02.342Z</time>
  <name>WPT 199</name>
</trkpt>
<trkpt lat="53.903264785" lon="-1.824924446">
  <ele>398.454713</ele>
  <time>2018-10-04T21:02:03.436Z</time>
  <name>WPT 200</name>
</trkpt>
<trkpt lat="53.903261645" lon="-1.822784491">
  <ele>393.127286</ele>
  <time>2018-10-04T21:02:04.300Z</time>
  <name>WPT 201</name>
</trkpt>
<trkpt lat="53.903532090" lon="-1.820903633">
  <ele>387.915222</ele>
  <time>2018-10-04T21:02:05.348Z</time>
  <name>WPT 202</name>
</trkpt>
<trkpt lat="53.903768525" lon="-1.819138572">
  <ele>385.823406</ele>
  <time>2018-10-04T21:02:06.326Z</time>
  <name>WPT 203</name>
</trkpt>
<trkpt lat="53.903869283" lon="-1.818010300">
  <ele>384.723497</ele>
  <time>2018-10-04T21:02:07.199Z</time>
  <name>WPT 204</name>
</trkpt>
<trkpt lat="53.903439803" lon="-1.816334887">
  <ele>385.405033</ele>
  <time>2018-10-04T21:02:08.184Z</time>
  <name>WPT 205</name>
</trkpt>
<trkpt lat="53.903097286" lon="-1.815700185">
  <ele>385.975638</ele>
  <time>2018-10-04T21:02:09.462Z</time>
  <name>WPT 206</name>
</trkpt>
<trkpt lat="53.902805998" lon="-1.815065267">
  <ele>386.567655</ele>
  <time>2018-10-04T21:02:13.062Z</time>
  <name>WPT 207</name>
</trkpt>
<trkpt lat="53.902633395" lon="-1.813880389">
  <ele>386.622809</ele>
  <time>2018-10-04T21:02:14.266Z</time>
  <name>WPT 208</name>
</trkpt>
<trkpt lat="53.902547830" lon="-1.813765097">
  <ele>386.907809</ele>
  <time>2018-10-04T21:02:14.449Z</time>
  <name>WPT 209</name>
</trkpt>
<trkpt lat="53.902513407" lon="-1.813591742">
  <ele>387.021809</ele>
  <time>2018-10-04T21:02:14.481Z</time>
  <name>WPT 210</name>
</trkpt>
<trkpt lat="53.902513182" lon="-1.813447153">
  <ele>387.021809</ele>
  <time>2018-10-04T21:02:14.512Z</time>
  <name>WPT 211</name>
</trkpt>
<trkpt lat="53.902512958" lon="-1.813302565">
  <ele>387.021809</ele>
  <time>2018-10-04T21:02:14.533Z</time>
  <name>WPT 212</name>
</trkpt>
<trkpt lat="53.902512733" lon="-1.813157976">
  <ele>387.021809</ele>
  <time>2018-10-04T21:02:14.563Z</time>
  <name>WPT 213</name>
</trkpt>
<trkpt lat="53.902512508" lon="-1.813013387">
  <ele>387.021809</ele>
  <time>2018-10-04T21:02:14.583Z</time>
  <name>WPT 214</name>
</trkpt>
<trkpt lat="53.902512282" lon="-1.812868798">
  <ele>387.021809</ele>
  <time>2018-10-04T21:02:14.813Z</time>
  <name>WPT 215</name>
</trkpt>
<trkpt lat="53.902478173" lon="-1.812897868">
  <ele>387.135809</ele>
  <time>2018-10-04T21:02:15.106Z</time>
  <name>WPT 216</name>
</trkpt>
<trkpt lat="53.902425043" lon="-1.811683553">
  <ele>385.582027</ele>
  <time>2018-10-04T21:02:16.134Z</time>
  <name>WPT 217</name>
</trkpt>
<trkpt lat="53.901911413" lon="-1.810847254">
  <ele>385.471733</ele>
  <time>2018-10-04T21:02:17.420Z</time>
  <name>WPT 218</name>
</trkpt>
<trkpt lat="53.901157735" lon="-1.809404806">
  <ele>379.972997</ele>
  <time>2018-10-04T21:02:18.893Z</time>
  <name>WPT 219</name>
</trkpt>
<trkpt lat="53.900832121" lon="-1.808683368">
  <ele>377.073135</ele>
  <time>2018-10-04T21:02:20.049Z</time>
  <name>WPT 220</name>
</trkpt>
<trkpt lat="53.899926390" lon="-1.808282679">
  <ele>372.250832</ele>
  <time>2018-10-04T21:02:21.414Z</time>
  <name>WPT 221</name>
</trkpt>
<trkpt lat="53.898969380" lon="-1.807853327">
  <ele>367.969926</ele>
  <time>2018-10-04T21:02:24.568Z</time>
  <name>WPT 222</name>
</trkpt>
<trkpt lat="53.898354188" lon="-1.807595913">
  <ele>365.558522</ele>
  <time>2018-10-04T21:02:25.506Z</time>
  <name>WPT 223</name>
</trkpt>
<trkpt lat="53.897670780" lon="-1.807396650">
  <ele>361.894944</ele>
  <time>2018-10-04T21:02:26.416Z</time>
  <name>WPT 224</name>
</trkpt>
<trkpt lat="53.897107283" lon="-1.807428156">
  <ele>358.591474</ele>
  <time>2018-10-04T21:02:27.357Z</time>
  <name>WPT 225</name>
</trkpt>
<trkpt lat="53.896526569" lon="-1.807372998">
  <ele>355.051136</ele>
  <time>2018-10-04T21:02:28.957Z</time>
  <name>WPT 226</name>
</trkpt>
<trkpt lat="53.895757729" lon="-1.807145227">
  <ele>351.017079</ele>
  <time>2018-10-04T21:02:30.034Z</time>
  <name>WPT 227</name>
</trkpt>
<trkpt lat="53.895262400" lon="-1.807089682">
  <ele>349.358757</ele>
  <time>2018-10-04T21:02:30.975Z</time>
  <name>WPT 228</name>
</trkpt>
<trkpt lat="53.894631336" lon="-1.807584102">
  <ele>347.800794</ele>
  <time>2018-10-04T21:02:31.814Z</time>
  <name>WPT 229</name>
</trkpt>
<trkpt lat="53.893761745" lon="-1.808426542">
  <ele>345.862794</ele>
  <time>2018-10-04T21:02:35.767Z</time>
  <name>WPT 230</name>
</trkpt>
<trkpt lat="53.892823977" lon="-1.809355992">
  <ele>343.772794</ele>
  <time>2018-10-04T21:02:36.934Z</time>
  <name>WPT 231</name>
</trkpt>
<trkpt lat="53.892158062" lon="-1.809416845">
  <ele>342.290794</ele>
  <time>2018-10-04T21:02:37.765Z</time>
  <name>WPT 232</name>
</trkpt>
<trkpt lat="53.890756354" lon="-1.810250956">
  <ele>337.537102</ele>
  <time>2018-10-04T22:10:51.903Z</time>
  <name>WPT 233</name>
</trkpt>
<trkpt lat="53.889871116" lon="-1.810872711">
  <ele>335.042997</ele>
  <time>2018-10-04T22:10:53.226Z</time>
  <name>WPT 234</name>
</trkpt>
<trkpt lat="53.889064002" lon="-1.811449964">
  <ele>333.201102</ele>
  <time>2018-10-04T22:10:54.422Z</time>
  <name>WPT 235</name>
</trkpt>
<trkpt lat="53.887397426" lon="-1.812472271">
  <ele>327.805226</ele>
  <time>2018-10-04T22:10:55.779Z</time>
  <name>WPT 236</name>
</trkpt>
<trkpt lat="53.886120444" lon="-1.812610348">
  <ele>322.244352</ele>
  <time>2018-10-04T22:10:56.991Z</time>
  <name>WPT 237</name>
</trkpt>
<trkpt lat="53.884634251" lon="-1.812308161">
  <ele>313.846964</ele>
  <time>2018-10-04T22:10:58.029Z</time>
  <name>WPT 238</name>
</trkpt>
<trkpt lat="53.883303964" lon="-1.811696471">
  <ele>303.323175</ele>
  <time>2018-10-04T22:10:59.147Z</time>
  <name>WPT 239</name>
</trkpt>
<trkpt lat="53.882000294" lon="-1.811437631">
  <ele>295.930154</ele>
  <time>2018-10-04T22:11:00.233Z</time>
  <name>WPT 240</name>
</trkpt>
<trkpt lat="53.880983755" lon="-1.811442205">
  <ele>296.842558</ele>
  <time>2018-10-04T22:11:01.291Z</time>
  <name>WPT 241</name>
</trkpt>
<trkpt lat="53.880306201" lon="-1.811533482">
  <ele>299.222755</ele>
  <time>2018-10-04T22:11:02.714Z</time>
  <name>WPT 242</name>
</trkpt>
<trkpt lat="53.879601957" lon="-1.811227853">
  <ele>300.367547</ele>
  <time>2018-10-04T22:11:07.479Z</time>
  <name>WPT 243</name>
</trkpt>
<trkpt lat="53.876421666" lon="-1.811021624">
  <ele>280.094664</ele>
  <time>2018-10-04T22:11:15.338Z</time>
  <name>WPT 244</name>
</trkpt>
<trkpt lat="53.874885209" lon="-1.811910728">
  <ele>257.975356</ele>
  <time>2018-10-04T22:11:17.396Z</time>
  <name>WPT 245</name>
</trkpt>
<trkpt lat="53.874702891" lon="-1.811999763">
  <ele>256.208622</ele>
  <time>2018-10-04T22:11:19.134Z</time>
  <name>WPT 246</name>
</trkpt>
<trkpt lat="53.874598630" lon="-1.812000231">
  <ele>255.329092</ele>
  <time>2018-10-04T22:11:21.209Z</time>
  <name>WPT 247</name>
</trkpt>
<trkpt lat="53.874493401" lon="-1.811383185">
  <ele>255.865851</ele>
  <time>2018-10-04T22:11:22.457Z</time>
  <name>WPT 248</name>
</trkpt>
<trkpt lat="53.874231500" lon="-1.810590416">
  <ele>255.320063</ele>
  <time>2018-10-04T22:11:23.533Z</time>
  <name>WPT 249</name>
</trkpt>
<trkpt lat="53.873863510" lon="-1.808651336">
  <ele>255.371221</ele>
  <time>2018-10-04T22:11:24.929Z</time>
  <name>WPT 250</name>
</trkpt>
<trkpt lat="53.873705639" lon="-1.807725796">
  <ele>255.125069</ele>
  <time>2018-10-04T22:11:26.260Z</time>
  <name>WPT 251</name>
</trkpt>
<trkpt lat="53.873080429" lon="-1.807949199">
  <ele>248.265430</ele>
  <time>2018-10-04T22:11:29.218Z</time>
  <name>WPT 252</name>
</trkpt>
<trkpt lat="53.872794135" lon="-1.808215150">
  <ele>245.818640</ele>
  <time>2018-10-04T22:11:30.346Z</time>
  <name>WPT 253</name>
</trkpt>
<trkpt lat="53.872247331" lon="-1.808570501">
  <ele>241.961652</ele>
  <time>2018-10-04T22:11:31.302Z</time>
  <name>WPT 254</name>
</trkpt>
<trkpt lat="53.871700314" lon="-1.808793526">
  <ele>237.882679</ele>
  <time>2018-10-04T22:11:32.716Z</time>
  <name>WPT 255</name>
</trkpt>
<trkpt lat="53.870631081" lon="-1.808445567">
  <ele>231.050831</ele>
  <time>2018-10-04T22:11:34.812Z</time>
  <name>WPT 256</name>
</trkpt>
<trkpt lat="53.870397899" lon="-1.809328716">
  <ele>230.306599</ele>
  <time>2018-10-04T22:11:36.327Z</time>
  <name>WPT 257</name>
</trkpt>
<trkpt lat="53.870268901" lon="-1.810167279">
  <ele>229.858451</ele>
  <time>2018-10-04T22:11:38.076Z</time>
  <name>WPT 258</name>
</trkpt>
<trkpt lat="53.869802851" lon="-1.812154047">
  <ele>225.642329</ele>
  <time>2018-10-04T22:11:40.240Z</time>
  <name>WPT 259</name>
</trkpt>
<trkpt lat="53.869594261" lon="-1.812110879">
  <ele>223.815329</ele>
  <time>2018-10-04T22:12:28.133Z</time>
  <name>WPT 260</name>
</trkpt>
<trkpt lat="53.869020274" lon="-1.811760629">
  <ele>219.853138</ele>
  <time>2018-10-04T22:12:30.516Z</time>
  <name>WPT 261</name>
</trkpt>
<trkpt lat="53.868655224" lon="-1.811674064">
  <ele>217.404984</ele>
  <time>2018-10-04T22:12:32.297Z</time>
  <name>WPT 262</name>
</trkpt>
<trkpt lat="53.868655708" lon="-1.811982778">
  <ele>216.788267</ele>
  <time>2018-10-04T22:12:33.530Z</time>
  <name>WPT 263</name>
</trkpt>
<trkpt lat="53.868265351" lon="-1.812381445">
  <ele>212.841930</ele>
  <time>2018-10-04T22:12:34.679Z</time>
  <name>WPT 264</name>
</trkpt>
<trkpt lat="53.867692744" lon="-1.812913223">
  <ele>205.533786</ele>
  <time>2018-10-04T22:12:36.360Z</time>
  <name>WPT 265</name>
</trkpt>
<trkpt lat="53.867536833" lon="-1.813222627">
  <ele>203.417015</ele>
  <time>2018-10-04T22:12:38.106Z</time>
  <name>WPT 266</name>
</trkpt>
<trkpt lat="53.867485936" lon="-1.814016673">
  <ele>200.284187</ele>
  <time>2018-10-04T22:12:39.815Z</time>
  <name>WPT 267</name>
</trkpt>
<trkpt lat="53.867356973" lon="-1.814899264">
  <ele>197.771099</ele>
  <time>2018-10-04T22:12:41.121Z</time>
  <name>WPT 268</name>
</trkpt>
<trkpt lat="53.866732428" lon="-1.815563525">
  <ele>194.503708</ele>
  <time>2018-10-04T22:12:43.505Z</time>
  <name>WPT 269</name>
</trkpt>
<trkpt lat="53.866080866" lon="-1.815610491">
  <ele>193.478544</ele>
  <time>2018-10-04T22:12:45.183Z</time>
  <name>WPT 270</name>
</trkpt>
<trkpt lat="53.864805630" lon="-1.816894948">
  <ele>195.545886</ele>
  <time>2018-10-04T22:12:50.929Z</time>
  <name>WPT 271</name>
</trkpt>
<trkpt lat="53.864859504" lon="-1.818041269">
  <ele>200.170309</ele>
  <time>2018-10-04T22:12:52.974Z</time>
  <name>WPT 272</name>
</trkpt>
<trkpt lat="53.864755377" lon="-1.818129917">
  <ele>200.861594</ele>
  <time>2018-10-04T22:12:54.052Z</time>
  <name>WPT 273</name>
</trkpt>
<trkpt lat="53.864312269" lon="-1.818131839">
  <ele>202.133610</ele>
  <time>2018-10-04T22:12:56.671Z</time>
  <name>WPT 274</name>
</trkpt>
<trkpt lat="53.864129946" lon="-1.818220825">
  <ele>202.785484</ele>
  <time>2018-10-04T22:12:57.909Z</time>
  <name>WPT 275</name>
</trkpt>
<trkpt lat="53.863400588" lon="-1.818532664">
  <ele>202.943213</ele>
  <time>2018-10-04T22:12:59.398Z</time>
  <name>WPT 276</name>
</trkpt>
<trkpt lat="53.863192532" lon="-1.818842240">
  <ele>204.577335</ele>
  <time>2018-10-04T22:13:00.634Z</time>
  <name>WPT 277</name>
</trkpt>
<trkpt lat="53.863011073" lon="-1.819504470">
  <ele>208.911643</ele>
  <time>2018-10-04T22:13:01.918Z</time>
  <name>WPT 278</name>
</trkpt>
<trkpt lat="53.862777743" lon="-1.820343300">
  <ele>213.502332</ele>
  <time>2018-10-04T22:13:03.185Z</time>
  <name>WPT 279</name>
</trkpt>
<trkpt lat="53.862467457" lon="-1.822020270">
  <ele>216.297645</ele>
  <time>2018-10-04T22:13:05.101Z</time>
  <name>WPT 280</name>
</trkpt>
<trkpt lat="53.862181262" lon="-1.822374249">
  <ele>215.353480</ele>
  <time>2018-10-04T22:13:06.702Z</time>
  <name>WPT 281</name>
</trkpt>
<trkpt lat="53.861973913" lon="-1.823168842">
  <ele>214.606299</ele>
  <time>2018-10-04T22:13:08.215Z</time>
  <name>WPT 282</name>
</trkpt>
<trkpt lat="53.861896366" lon="-1.823610121">
  <ele>214.117731</ele>
  <time>2018-10-04T22:13:51.045Z</time>
  <name>WPT 283</name>
</trkpt>
<trkpt lat="53.861402291" lon="-1.824405903">
  <ele>208.256997</ele>
  <time>2018-10-04T22:13:55.393Z</time>
  <name>WPT 284</name>
</trkpt>
<trkpt lat="53.861351960" lon="-1.825640763">
  <ele>202.802192</ele>
  <time>2018-10-04T22:13:59.725Z</time>
  <name>WPT 285</name>
</trkpt>
<trkpt lat="53.860988070" lon="-1.826347784">
  <ele>195.384022</ele>
  <time>2018-10-04T22:14:10.733Z</time>
  <name>WPT 286</name>
</trkpt>
<trkpt lat="53.861223422" lon="-1.826875943">
  <ele>193.806868</ele>
  <time>2018-10-04T22:14:12.277Z</time>
  <name>WPT 287</name>
</trkpt>
<trkpt lat="53.861485026" lon="-1.827536285">
  <ele>191.341868</ele>
  <time>2018-10-04T22:14:13.580Z</time>
  <name>WPT 288</name>
</trkpt>
<trkpt lat="53.861798946" lon="-1.828328705">
  <ele>189.036824</ele>
  <time>2018-10-04T22:14:15.560Z</time>
  <name>WPT 289</name>
</trkpt>
<trkpt lat="53.861877520" lon="-1.828592955">
  <ele>188.343813</ele>
  <time>2018-10-04T22:14:16.804Z</time>
  <name>WPT 290</name>
</trkpt>
<trkpt lat="53.861591369" lon="-1.828990978">
  <ele>183.450983</ele>
  <time>2018-10-04T22:14:18.139Z</time>
  <name>WPT 291</name>
</trkpt>
<trkpt lat="53.861670317" lon="-1.829519796">
  <ele>181.335193</ele>
  <time>2018-10-04T22:14:19.521Z</time>
  <name>WPT 292</name>
</trkpt>
<trkpt lat="53.861722683" lon="-1.829685319">
  <ele>180.992470</ele>
  <time>2018-10-04T22:14:30.478Z</time>
  <name>WPT 293</name>
</trkpt>
<trkpt lat="53.861364512" lon="-1.830004559">
  <ele>178.069492</ele>
  <time>2018-10-04T22:14:31.595Z</time>
  <name>WPT 294</name>
</trkpt>
<trkpt lat="53.861365003" lon="-1.830351232">
  <ele>178.035382</ele>
  <time>2018-10-04T22:14:40.027Z</time>
  <name>WPT 295</name>
</trkpt>
<trkpt lat="53.861365574" lon="-1.830755684">
  <ele>177.995588</ele>
  <time>2018-10-04T22:15:25.602Z</time>
  <name>WPT 296</name>
</trkpt>
<trkpt lat="53.861076925" lon="-1.831941314">
  <ele>173.747399</ele>
  <time>2018-10-04T22:15:27.780Z</time>
  <name>WPT 297</name>
</trkpt>
<trkpt lat="53.861077047" lon="-1.832027982">
  <ele>173.522522</ele>
  <time>2018-10-04T22:15:28.913Z</time>
  <name>WPT 298</name>
</trkpt>
<trkpt lat="53.861265179" lon="-1.832229455">
  <ele>174.746239</ele>
  <time>2018-10-04T22:15:30.584Z</time>
  <name>WPT 299</name>
</trkpt>
<trkpt lat="53.861624002" lon="-1.832372468">
  <ele>177.614240</ele>
  <time>2018-10-04T22:15:31.898Z</time>
  <name>WPT 300</name>
</trkpt>
<trkpt lat="53.861914638" lon="-1.832602426">
  <ele>179.419240</ele>
  <time>2018-10-04T22:15:34.203Z</time>
  <name>WPT 301</name>
</trkpt>
<trkpt lat="53.862393965" lon="-1.833438331">
  <ele>180.033849</ele>
  <time>2018-10-04T22:15:36.407Z</time>
  <name>WPT 302</name>
</trkpt>
<trkpt lat="53.862736829" lon="-1.834390357">
  <ele>179.557608</ele>
  <time>2018-10-04T22:15:39.253Z</time>
  <name>WPT 303</name>
</trkpt>
<trkpt lat="53.862498894" lon="-1.834570721">
  <ele>175.593465</ele>
  <time>2018-10-04T22:30:59.299Z</time>
  <name>WPT 260</name>
</trkpt>
<trkpt lat="53.862225778" lon="-1.834658469">
  <ele>171.846488</ele>
  <time>2018-10-04T22:31:29.369Z</time>
  <name>WPT 261</name>
</trkpt>
<trkpt lat="53.861816004" lon="-1.834717864">
  <ele>166.714635</ele>
  <time>2018-10-04T22:31:30.963Z</time>
  <name>WPT 262</name>
</trkpt>
<trkpt lat="53.861303767" lon="-1.834777662">
  <ele>160.833615</ele>
  <time>2018-10-04T22:31:33.287Z</time>
  <name>WPT 263</name>
</trkpt>
<trkpt lat="53.861166991" lon="-1.834662643">
  <ele>160.429460</ele>
  <time>2018-10-04T22:31:34.660Z</time>
  <name>WPT 264</name>
</trkpt>
<trkpt lat="53.861149714" lon="-1.834518264">
  <ele>161.334044</ele>
  <time>2018-10-04T22:31:35.708Z</time>
  <name>WPT 265</name>
</trkpt>
<trkpt lat="53.860995940" lon="-1.834461092">
  <ele>160.272225</ele>
  <time>2018-10-04T22:31:37.010Z</time>
  <name>WPT 266</name>
</trkpt>
<trkpt lat="53.860551812" lon="-1.834376178">
  <ele>156.647317</ele>
  <time>2018-10-04T22:31:38.196Z</time>
  <name>WPT 267</name>
</trkpt>
<trkpt lat="53.860176034" lon="-1.834319885">
  <ele>154.101317</ele>
  <time>2018-10-04T22:31:40.371Z</time>
  <name>WPT 268</name>
</trkpt>
<trkpt lat="53.859800335" lon="-1.834321369">
  <ele>151.175317</ele>
  <time>2018-10-04T22:31:41.440Z</time>
  <name>WPT 269</name>
</trkpt>
<trkpt lat="53.859253704" lon="-1.834207976">
  <ele>146.049064</ele>
  <time>2018-10-04T22:31:44.681Z</time>
  <name>WPT 270</name>
</trkpt>
<trkpt lat="53.858963511" lon="-1.834295787">
  <ele>142.424841</ele>
  <time>2018-10-04T22:31:59.692Z</time>
  <name>WPT 271</name>
</trkpt>
<trkpt lat="53.858570895" lon="-1.834412888">
  <ele>137.753398</ele>
  <time>2018-10-04T22:32:02.548Z</time>
  <name>WPT 272</name>
</trkpt>
<trkpt lat="53.858332092" lon="-1.834616044">
  <ele>134.395719</ele>
  <time>2018-10-04T22:32:03.896Z</time>
  <name>WPT 273</name>
</trkpt>
<trkpt lat="53.858127126" lon="-1.834587964">
  <ele>132.537131</ele>
  <time>2018-10-04T22:32:05.534Z</time>
  <name>WPT 274</name>
</trkpt>
<trkpt lat="53.857819018" lon="-1.834069211">
  <ele>131.683162</ele>
  <time>2018-10-04T22:32:07.365Z</time>
  <name>WPT 275</name>
</trkpt>
<trkpt lat="53.857545463" lon="-1.833839198">
  <ele>130.052783</ele>
  <time>2018-10-04T22:32:08.440Z</time>
  <name>WPT 276</name>
</trkpt>
<trkpt lat="53.857306461" lon="-1.833897918">
  <ele>127.864475</ele>
  <time>2018-10-04T22:32:09.706Z</time>
  <name>WPT 277</name>
</trkpt>
<trkpt lat="53.856896768" lon="-1.834015086">
  <ele>124.291908</ele>
  <time>2018-10-04T22:32:14.591Z</time>
  <name>WPT 278</name>
</trkpt>
<trkpt lat="53.856794544" lon="-1.834188809">
  <ele>123.037908</ele>
  <time>2018-10-04T22:32:15.718Z</time>
  <name>WPT 279</name>
</trkpt>
<trkpt lat="53.856453358" lon="-1.834450134">
  <ele>119.850216</ele>
  <time>2018-10-04T22:32:17.399Z</time>
  <name>WPT 280</name>
</trkpt>
<trkpt lat="53.856282706" lon="-1.834537466">
  <ele>118.444216</ele>
  <time>2018-10-04T22:32:18.535Z</time>
  <name>WPT 281</name>
</trkpt>
<trkpt lat="53.855634486" lon="-1.835059964">
  <ele>112.380413</ele>
  <time>2018-10-04T22:32:22.489Z</time>
  <name>WPT 282</name>
</trkpt>
<trkpt lat="53.855669236" lon="-1.835493112">
  <ele>110.411241</ele>
  <time>2018-10-04T22:32:23.656Z</time>
  <name>WPT 283</name>
</trkpt>
<trkpt lat="53.855874756" lon="-1.835925594">
  <ele>108.808661</ele>
  <time>2018-10-04T22:32:25.249Z</time>
  <name>WPT 284</name>
</trkpt>
<trkpt lat="53.856251322" lon="-1.836559614">
  <ele>106.217478</ele>
  <time>2018-10-04T22:32:26.384Z</time>
  <name>WPT 285</name>
</trkpt>
<trkpt lat="53.856456642" lon="-1.836847676">
  <ele>105.647787</ele>
  <time>2018-10-04T22:32:27.671Z</time>
  <name>WPT 286</name>
</trkpt>
<trkpt lat="53.856559458" lon="-1.837107252">
  <ele>104.666917</ele>
  <time>2018-10-04T22:32:29.024Z</time>
  <name>WPT 287</name>
</trkpt>
<trkpt lat="53.856628041" lon="-1.837309190">
  <ele>103.868961</ele>
  <time>2018-10-04T22:32:30.242Z</time>
  <name>WPT 288</name>
</trkpt>
<trkpt lat="53.856491893" lon="-1.837656353">
  <ele>100.483693</ele>
  <time>2018-10-04T22:32:31.317Z</time>
  <name>WPT 289</name>
</trkpt>
<trkpt lat="53.856338432" lon="-1.837830264">
  <ele>98.006844</ele>
  <time>2018-10-04T22:32:32.694Z</time>
  <name>WPT 290</name>
</trkpt>
<trkpt lat="53.856356133" lon="-1.838292374">
  <ele>94.970652</ele>
  <time>2018-10-04T22:32:35.973Z</time>
  <name>WPT 291</name>
</trkpt>
<trkpt lat="53.856715144" lon="-1.838579853">
  <ele>96.451084</ele>
  <time>2018-10-04T22:32:40.174Z</time>
  <name>WPT 292</name>
</trkpt>
<trkpt lat="53.857177005" lon="-1.839155810">
  <ele>98.042069</ele>
  <time>2018-10-04T22:32:41.540Z</time>
  <name>WPT 293</name>
</trkpt>
<trkpt lat="53.857450743" lon="-1.839530290">
  <ele>99.237239</ele>
  <time>2018-10-04T22:32:42.973Z</time>
  <name>WPT 294</name>
</trkpt>
<trkpt lat="53.857758403" lon="-1.839731322">
  <ele>101.656148</ele>
  <time>2018-10-04T22:32:44.260Z</time>
  <name>WPT 295</name>
</trkpt>
<trkpt lat="53.857622363" lon="-1.840165147">
  <ele>98.392103</ele>
  <time>2018-10-04T22:32:45.582Z</time>
  <name>WPT 296</name>
</trkpt>
<trkpt lat="53.857076545" lon="-1.840658300">
  <ele>90.986431</ele>
  <time>2018-10-04T22:32:47.500Z</time>
  <name>WPT 297</name>
</trkpt>
<trkpt lat="53.857213546" lon="-1.840946647">
  <ele>91.936431</ele>
  <time>2018-10-04T22:32:48.458Z</time>
  <name>WPT 298</name>
</trkpt>
<trkpt lat="53.857709969" lon="-1.841840263">
  <ele>95.679431</ele>
  <time>2018-10-04T22:32:51.049Z</time>
  <name>WPT 299</name>
</trkpt>
<trkpt lat="53.857949583" lon="-1.842243781">
  <ele>95.244785</ele>
  <time>2018-10-04T22:32:52.582Z</time>
  <name>WPT 300</name>
</trkpt>
<trkpt lat="53.858359702" lon="-1.842444451">
  <ele>95.517590</ele>
  <time>2018-10-04T22:32:53.964Z</time>
  <name>WPT 301</name>
</trkpt>
<trkpt lat="53.858667471" lon="-1.842732172">
  <ele>95.038532</ele>
  <time>2018-10-04T22:33:04.531Z</time>
  <name>WPT 302</name>
</trkpt>
<trkpt lat="53.858326607" lon="-1.843253425">
  <ele>90.000880</ele>
  <time>2018-10-04T22:33:06.482Z</time>
  <name>WPT 303</name>
</trkpt>
<trkpt lat="53.858412445" lon="-1.843599755">
  <ele>89.307449</ele>
  <time>2018-10-04T22:33:08.102Z</time>
  <name>WPT 304</name>
</trkpt>
<trkpt lat="53.858754779" lon="-1.844205121">
  <ele>89.068974</ele>
  <time>2018-10-04T22:33:09.815Z</time>
  <name>WPT 305</name>
</trkpt>
<trkpt lat="53.859627249" lon="-1.845386304">
  <ele>88.562080</ele>
  <time>2018-10-04T22:33:12.301Z</time>
  <name>WPT 306</name>
</trkpt>
<trkpt lat="53.858978686" lon="-1.845677574">
  <ele>88.118592</ele>
  <time>2018-10-04T22:33:14.004Z</time>
  <name>WPT 307</name>
</trkpt>
<trkpt lat="53.858704855" lon="-1.845216378">
  <ele>87.550369</ele>
  <time>2018-10-04T22:33:17.335Z</time>
  <name>WPT 308</name>
<extensions>
        <drawing v="True" pv="False" pw="4" pc="255|255|255" pt="0" lv="True" lw="4" lc="255|0|0" lt="0" ls="0" lcs="3" fc="255|255|255" ft="120" fs="-1" fsc="0|0|0" xmlns="" />
      </extensions>
</trkpt>
</trkseg>
</trk>
</gpx>
